sensor_id;sensor_type;location;lat;lon;timestamp;temperature;humidity
67141;DHT22;54058;52.010;5.546;2024-01-15T00:01:29;3.30;99.90
67141;DHT22;54058;52.010;5.546;2024-01-15T00:03:54;3.40;99.90
67141;DHT22;54058;52.010;5.546;2024-01-15T00:06:20;3.30;99.90
67141;DHT22;54058;52.010;5.546;2024-01-15T00:08:46;3.40;99.90
67141;DHT22;54058;52.010;5.546;2024-01-15T00:11:12;3.30;99.90
67141;DHT22;54058;52.010;5.546;2024-01-15T00:13:37;3.30;99.90
67141;DHT22;54058;52.010;5.546;2024-01-15T00:16:04;3.30;99.90
67141;DHT22;54058;52.010;5.546;2024-01-15T00:18:30;3.20;99.90
67141;DHT22;54058;52.010;5.546;2024-01-15T00:20:55;3.20;99.90
67141;DHT22;54058;52.010;5.546;2024-01-15T00:23:22;3.20;99.90
67141;DHT22;54058;52.010;5.546;2024-01-15T00:25:47;3.20;99.90
67141;DHT22;54058;52.010;5.546;2024-01-15T00:28:13;3.20;99.90
67141;DHT22;54058;52.010;5.546;2024-01-15T00:30:39;3.10;99.90
67141;DHT22;54058;52.010;5.546;2024-01-15T00:33:04;3.10;99.90
67141;DHT22;54058;52.010;5.546;2024-01-15T00:35:30;3.10;99.90
67141;DHT22;54058;52.010;5.546;2024-01-15T00:37:56;3.00;99.90
67141;DHT22;54058;52.010;5.546;2024-01-15T00:40:21;3.00;99.90
67141;DHT22;54058;52.010;5.546;2024-01-15T00:42:47;2.90;99.90
67141;DHT22;54058;52.010;5.546;2024-01-15T00:45:12;2.90;99.90
67141;DHT22;54058;52.010;5.546;2024-01-15T00:47:38;2.90;99.90
67141;DHT22;54058;52.010;5.546;2024-01-15T00:50:04;3.00;99.90
67141;DHT22;54058;52.010;5.546;2024-01-15T00:52:30;3.00;99.90
67141;DHT22;54058;52.010;5.546;2024-01-15T00:54:56;3.00;99.90
67141;DHT22;54058;52.010;5.546;2024-01-15T00:57:21;3.00;99.90
67141;DHT22;54058;52.010;5.546;2024-01-15T00:59:47;2.90;99.90
67141;DHT22;54058;52.010;5.546;2024-01-15T01:02:13;2.90;99.90
67141;DHT22;54058;52.010;5.546;2024-01-15T01:04:40;2.90;99.90
67141;DHT22;54058;52.010;5.546;2024-01-15T01:07:06;2.90;99.90
67141;DHT22;54058;52.010;5.546;2024-01-15T01:09:31;2.80;99.90
67141;DHT22;54058;52.010;5.546;2024-01-15T01:11:57;2.90;99.90
67141;DHT22;54058;52.010;5.546;2024-01-15T01:14:22;2.90;99.90
67141;DHT22;54058;52.010;5.546;2024-01-15T01:16:48;2.90;99.90
67141;DHT22;54058;52.010;5.546;2024-01-15T01:19:14;3.00;99.90
67141;DHT22;54058;52.010;5.546;2024-01-15T01:21:39;3.00;99.90
67141;DHT22;54058;52.010;5.546;2024-01-15T01:24:05;3.00;99.90
67141;DHT22;54058;52.010;5.546;2024-01-15T01:26:31;2.90;99.90
67141;DHT22;54058;52.010;5.546;2024-01-15T01:28:56;3.00;99.90
67141;DHT22;54058;52.010;5.546;2024-01-15T01:31:23;2.90;99.90
67141;DHT22;54058;52.010;5.546;2024-01-15T01:33:49;2.90;99.90
67141;DHT22;54058;52.010;5.546;2024-01-15T01:36:14;2.90;99.90
67141;DHT22;54058;52.010;5.546;2024-01-15T01:38:40;2.90;99.90
67141;DHT22;54058;52.010;5.546;2024-01-15T01:41:06;2.90;99.90
67141;DHT22;54058;52.010;5.546;2024-01-15T01:43:32;2.90;99.90
67141;DHT22;54058;52.010;5.546;2024-01-15T01:45:58;2.90;99.90
67141;DHT22;54058;52.010;5.546;2024-01-15T01:48:25;2.90;99.90
67141;DHT22;54058;52.010;5.546;2024-01-15T01:50:54;2.90;99.90
67141;DHT22;54058;52.010;5.546;2024-01-15T01:53:20;2.90;99.90
67141;DHT22;54058;52.010;5.546;2024-01-15T01:55:46;2.90;99.90
67141;DHT22;54058;52.010;5.546;2024-01-15T01:58:13;2.90;99.90
67141;DHT22;54058;52.010;5.546;2024-01-15T02:00:39;2.90;99.90
67141;DHT22;54058;52.010;5.546;2024-01-15T02:03:05;2.90;99.90
67141;DHT22;54058;52.010;5.546;2024-01-15T02:05:31;2.80;99.90
67141;DHT22;54058;52.010;5.546;2024-01-15T02:07:57;2.80;99.90
67141;DHT22;54058;52.010;5.546;2024-01-15T02:10:22;2.80;99.90
67141;DHT22;54058;52.010;5.546;2024-01-15T02:12:48;2.80;99.90
67141;DHT22;54058;52.010;5.546;2024-01-15T02:15:14;2.70;99.90
67141;DHT22;54058;52.010;5.546;2024-01-15T02:18:03;2.70;99.90
67141;DHT22;54058;52.010;5.546;2024-01-15T02:20:29;2.70;99.90
67141;DHT22;54058;52.010;5.546;2024-01-15T02:23:08;2.80;99.90
67141;DHT22;54058;52.010;5.546;2024-01-15T02:25:37;2.80;99.90
67141;DHT22;54058;52.010;5.546;2024-01-15T02:28:03;2.80;99.90
67141;DHT22;54058;52.010;5.546;2024-01-15T02:30:30;2.80;99.90
67141;DHT22;54058;52.010;5.546;2024-01-15T02:32:56;2.80;99.90
67141;DHT22;54058;52.010;5.546;2024-01-15T02:35:22;2.80;99.90
67141;DHT22;54058;52.010;5.546;2024-01-15T02:37:47;2.90;99.90
67141;DHT22;54058;52.010;5.546;2024-01-15T02:40:13;2.90;99.90
67141;DHT22;54058;52.010;5.546;2024-01-15T02:42:38;2.90;99.90
67141;DHT22;54058;52.010;5.546;2024-01-15T02:45:04;2.90;99.90
67141;DHT22;54058;52.010;5.546;2024-01-15T02:47:30;2.90;99.90
67141;DHT22;54058;52.010;5.546;2024-01-15T02:49:55;3.00;99.90
67141;DHT22;54058;52.010;5.546;2024-01-15T02:52:21;3.00;99.90
67141;DHT22;54058;52.010;5.546;2024-01-15T02:54:47;3.00;99.90
67141;DHT22;54058;52.010;5.546;2024-01-15T02:57:12;3.00;99.90
67141;DHT22;54058;52.010;5.546;2024-01-15T02:59:38;3.00;99.90
67141;DHT22;54058;52.010;5.546;2024-01-15T03:02:04;3.10;99.90
67141;DHT22;54058;52.010;5.546;2024-01-15T03:04:29;3.10;99.90
67141;DHT22;54058;52.010;5.546;2024-01-15T03:06:55;3.10;99.90
67141;DHT22;54058;52.010;5.546;2024-01-15T03:09:20;3.10;99.90
67141;DHT22;54058;52.010;5.546;2024-01-15T03:11:46;3.10;99.90
67141;DHT22;54058;52.010;5.546;2024-01-15T03:14:12;3.10;99.90
67141;DHT22;54058;52.010;5.546;2024-01-15T03:16:37;3.10;99.90
67141;DHT22;54058;52.010;5.546;2024-01-15T03:19:03;3.00;99.90
67141;DHT22;54058;52.010;5.546;2024-01-15T03:21:28;3.00;99.90
67141;DHT22;54058;52.010;5.546;2024-01-15T03:23:54;3.00;99.90
67141;DHT22;54058;52.010;5.546;2024-01-15T03:26:20;3.00;99.90
67141;DHT22;54058;52.010;5.546;2024-01-15T03:28:45;2.90;99.90
67141;DHT22;54058;52.010;5.546;2024-01-15T03:31:11;2.90;99.90
67141;DHT22;54058;52.010;5.546;2024-01-15T03:33:36;2.80;99.90
67141;DHT22;54058;52.010;5.546;2024-01-15T03:36:02;2.80;99.90
67141;DHT22;54058;52.010;5.546;2024-01-15T03:38:29;2.80;99.90
67141;DHT22;54058;52.010;5.546;2024-01-15T03:40:55;2.80;99.90
67141;DHT22;54058;52.010;5.546;2024-01-15T03:43:20;2.80;99.90
67141;DHT22;54058;52.010;5.546;2024-01-15T03:45:46;2.80;99.90
67141;DHT22;54058;52.010;5.546;2024-01-15T03:48:11;2.80;99.90
67141;DHT22;54058;52.010;5.546;2024-01-15T03:50:37;2.80;99.90
67141;DHT22;54058;52.010;5.546;2024-01-15T03:53:03;2.70;99.90
67141;DHT22;54058;52.010;5.546;2024-01-15T03:55:28;2.70;99.90
67141;DHT22;54058;52.010;5.546;2024-01-15T03:57:54;2.70;99.90
67141;DHT22;54058;52.010;5.546;2024-01-15T04:00:20;2.70;99.90
67141;DHT22;54058;52.010;5.546;2024-01-15T04:02:45;2.80;99.90
67141;DHT22;54058;52.010;5.546;2024-01-15T04:05:11;2.80;99.90
67141;DHT22;54058;52.010;5.546;2024-01-15T04:07:37;2.80;99.90
67141;DHT22;54058;52.010;5.546;2024-01-15T04:10:02;2.80;99.90
67141;DHT22;54058;52.010;5.546;2024-01-15T04:12:28;2.90;99.90
67141;DHT22;54058;52.010;5.546;2024-01-15T04:14:54;2.90;99.90
67141;DHT22;54058;52.010;5.546;2024-01-15T04:17:19;2.80;99.90
67141;DHT22;54058;52.010;5.546;2024-01-15T04:19:46;2.70;99.90
67141;DHT22;54058;52.010;5.546;2024-01-15T04:22:13;2.60;99.90
67141;DHT22;54058;52.010;5.546;2024-01-15T04:24:39;2.60;99.90
67141;DHT22;54058;52.010;5.546;2024-01-15T04:27:05;2.70;99.90
67141;DHT22;54058;52.010;5.546;2024-01-15T04:29:31;2.70;99.90
67141;DHT22;54058;52.010;5.546;2024-01-15T04:31:56;2.80;99.90
67141;DHT22;54058;52.010;5.546;2024-01-15T04:34:22;2.90;99.90
67141;DHT22;54058;52.010;5.546;2024-01-15T04:36:47;2.90;99.90
67141;DHT22;54058;52.010;5.546;2024-01-15T04:39:13;2.90;99.90
67141;DHT22;54058;52.010;5.546;2024-01-15T04:41:39;3.00;99.90
67141;DHT22;54058;52.010;5.546;2024-01-15T04:44:04;3.00;99.90
67141;DHT22;54058;52.010;5.546;2024-01-15T04:46:30;3.00;99.90
67141;DHT22;54058;52.010;5.546;2024-01-15T04:48:56;3.00;99.90
67141;DHT22;54058;52.010;5.546;2024-01-15T04:51:21;3.00;99.90
67141;DHT22;54058;52.010;5.546;2024-01-15T04:53:47;2.90;99.90
67141;DHT22;54058;52.010;5.546;2024-01-15T04:56:13;2.90;99.90
67141;DHT22;54058;52.010;5.546;2024-01-15T04:58:38;2.80;99.90
67141;DHT22;54058;52.010;5.546;2024-01-15T05:01:04;2.80;99.90
67141;DHT22;54058;52.010;5.546;2024-01-15T05:03:29;2.80;99.90
67141;DHT22;54058;52.010;5.546;2024-01-15T05:05:55;2.80;99.90
67141;DHT22;54058;52.010;5.546;2024-01-15T05:08:21;2.80;99.90
67141;DHT22;54058;52.010;5.546;2024-01-15T05:10:47;2.80;99.90
67141;DHT22;54058;52.010;5.546;2024-01-15T05:13:13;2.80;99.90
67141;DHT22;54058;52.010;5.546;2024-01-15T05:15:38;2.70;99.90
67141;DHT22;54058;52.010;5.546;2024-01-15T05:18:04;2.70;99.90
67141;DHT22;54058;52.010;5.546;2024-01-15T05:20:30;2.70;99.90
67141;DHT22;54058;52.010;5.546;2024-01-15T05:22:56;2.60;99.90
67141;DHT22;54058;52.010;5.546;2024-01-15T05:25:22;2.70;99.90
67141;DHT22;54058;52.010;5.546;2024-01-15T05:27:48;2.70;99.90
67141;DHT22;54058;52.010;5.546;2024-01-15T05:30:14;2.70;99.90
67141;DHT22;54058;52.010;5.546;2024-01-15T05:32:39;2.80;99.90
67141;DHT22;54058;52.010;5.546;2024-01-15T05:35:06;2.80;99.90
67141;DHT22;54058;52.010;5.546;2024-01-15T05:37:31;2.80;99.90
67141;DHT22;54058;52.010;5.546;2024-01-15T05:39:57;2.90;99.90
67141;DHT22;54058;52.010;5.546;2024-01-15T05:42:22;2.90;99.90
67141;DHT22;54058;52.010;5.546;2024-01-15T05:44:48;2.90;99.90
67141;DHT22;54058;52.010;5.546;2024-01-15T05:47:14;2.90;99.90
67141;DHT22;54058;52.010;5.546;2024-01-15T05:49:40;2.90;99.90
67141;DHT22;54058;52.010;5.546;2024-01-15T05:52:06;2.80;99.90
67141;DHT22;54058;52.010;5.546;2024-01-15T05:54:31;2.80;99.90
67141;DHT22;54058;52.010;5.546;2024-01-15T05:56:57;2.80;99.90
67141;DHT22;54058;52.010;5.546;2024-01-15T05:59:23;2.80;99.90
67141;DHT22;54058;52.010;5.546;2024-01-15T06:01:48;2.80;99.90
67141;DHT22;54058;52.010;5.546;2024-01-15T06:04:14;2.80;99.90
67141;DHT22;54058;52.010;5.546;2024-01-15T06:06:40;2.80;99.90
67141;DHT22;54058;52.010;5.546;2024-01-15T06:09:05;2.90;99.90
67141;DHT22;54058;52.010;5.546;2024-01-15T06:11:32;2.90;99.90
67141;DHT22;54058;52.010;5.546;2024-01-15T06:13:58;2.90;99.90
67141;DHT22;54058;52.010;5.546;2024-01-15T06:16:25;3.00;99.90
67141;DHT22;54058;52.010;5.546;2024-01-15T06:18:51;3.00;99.90
67141;DHT22;54058;52.010;5.546;2024-01-15T06:21:17;3.00;99.90
67141;DHT22;54058;52.010;5.546;2024-01-15T06:23:43;3.10;99.90
67141;DHT22;54058;52.010;5.546;2024-01-15T06:26:11;3.00;99.90
67141;DHT22;54058;52.010;5.546;2024-01-15T06:28:36;3.10;99.90
67141;DHT22;54058;52.010;5.546;2024-01-15T06:31:02;3.10;99.90
67141;DHT22;54058;52.010;5.546;2024-01-15T06:33:28;3.10;99.90
67141;DHT22;54058;52.010;5.546;2024-01-15T06:35:54;3.10;99.90
67141;DHT22;54058;52.010;5.546;2024-01-15T06:38:19;3.20;99.90
67141;DHT22;54058;52.010;5.546;2024-01-15T06:40:45;3.20;99.90
67141;DHT22;54058;52.010;5.546;2024-01-15T06:43:13;3.20;99.90
67141;DHT22;54058;52.010;5.546;2024-01-15T06:45:38;3.20;99.90
67141;DHT22;54058;52.010;5.546;2024-01-15T06:48:04;3.20;99.90
67141;DHT22;54058;52.010;5.546;2024-01-15T06:50:30;3.10;99.90
67141;DHT22;54058;52.010;5.546;2024-01-15T06:52:55;3.10;99.90
67141;DHT22;54058;52.010;5.546;2024-01-15T06:55:21;3.10;99.90
67141;DHT22;54058;52.010;5.546;2024-01-15T06:57:47;3.10;99.90
67141;DHT22;54058;52.010;5.546;2024-01-15T07:00:13;3.10;99.90
67141;DHT22;54058;52.010;5.546;2024-01-15T07:02:39;3.00;99.90
67141;DHT22;54058;52.010;5.546;2024-01-15T07:05:04;3.00;99.90
67141;DHT22;54058;52.010;5.546;2024-01-15T07:07:33;3.00;99.90
67141;DHT22;54058;52.010;5.546;2024-01-15T07:09:59;2.90;99.90
67141;DHT22;54058;52.010;5.546;2024-01-15T07:12:25;3.00;99.90
67141;DHT22;54058;52.010;5.546;2024-01-15T07:14:50;2.90;99.90
67141;DHT22;54058;52.010;5.546;2024-01-15T07:17:16;2.90;99.90
67141;DHT22;54058;52.010;5.546;2024-01-15T07:19:41;3.00;99.90
67141;DHT22;54058;52.010;5.546;2024-01-15T07:22:07;3.10;99.90
67141;DHT22;54058;52.010;5.546;2024-01-15T07:24:33;3.10;99.90
67141;DHT22;54058;52.010;5.546;2024-01-15T07:27:01;3.10;99.90
67141;DHT22;54058;52.010;5.546;2024-01-15T07:29:26;3.10;99.90
67141;DHT22;54058;52.010;5.546;2024-01-15T07:31:52;3.00;99.90
67141;DHT22;54058;52.010;5.546;2024-01-15T07:34:18;3.00;99.90
67141;DHT22;54058;52.010;5.546;2024-01-15T07:36:44;2.90;99.90
67141;DHT22;54058;52.010;5.546;2024-01-15T07:39:10;2.90;99.90
67141;DHT22;54058;52.010;5.546;2024-01-15T07:41:36;2.90;99.90
67141;DHT22;54058;52.010;5.546;2024-01-15T07:44:02;2.90;99.90
67141;DHT22;54058;52.010;5.546;2024-01-15T07:46:28;2.80;99.90
67141;DHT22;54058;52.010;5.546;2024-01-15T07:48:54;2.70;99.90
67141;DHT22;54058;52.010;5.546;2024-01-15T07:51:23;2.70;99.90
67141;DHT22;54058;52.010;5.546;2024-01-15T07:53:49;2.80;99.90
67141;DHT22;54058;52.010;5.546;2024-01-15T07:56:15;2.80;99.90
67141;DHT22;54058;52.010;5.546;2024-01-15T07:58:41;2.80;99.90
67141;DHT22;54058;52.010;5.546;2024-01-15T08:01:07;2.90;99.90
67141;DHT22;54058;52.010;5.546;2024-01-15T08:03:33;2.80;99.90
67141;DHT22;54058;52.010;5.546;2024-01-15T08:05:59;2.80;99.90
67141;DHT22;54058;52.010;5.546;2024-01-15T08:08:25;2.90;99.90
67141;DHT22;54058;52.010;5.546;2024-01-15T08:10:52;2.90;99.90
67141;DHT22;54058;52.010;5.546;2024-01-15T08:13:18;2.80;99.90
67141;DHT22;54058;52.010;5.546;2024-01-15T08:15:44;2.80;99.90
67141;DHT22;54058;52.010;5.546;2024-01-15T08:18:09;3.00;99.90
67141;DHT22;54058;52.010;5.546;2024-01-15T08:20:35;3.00;99.90
67141;DHT22;54058;52.010;5.546;2024-01-15T08:23:01;3.00;99.90
67141;DHT22;54058;52.010;5.546;2024-01-15T08:25:27;3.00;99.90
67141;DHT22;54058;52.010;5.546;2024-01-15T08:27:52;3.00;99.90
67141;DHT22;54058;52.010;5.546;2024-01-15T08:30:18;3.00;99.90
67141;DHT22;54058;52.010;5.546;2024-01-15T08:32:44;3.10;99.90
67141;DHT22;54058;52.010;5.546;2024-01-15T08:35:10;3.00;99.90
67141;DHT22;54058;52.010;5.546;2024-01-15T08:37:37;3.00;99.90
67141;DHT22;54058;52.010;5.546;2024-01-15T08:40:03;3.10;99.90
67141;DHT22;54058;52.010;5.546;2024-01-15T08:42:29;3.10;99.90
67141;DHT22;54058;52.010;5.546;2024-01-15T08:44:55;3.10;99.90
67141;DHT22;54058;52.010;5.546;2024-01-15T08:47:21;3.10;99.90
67141;DHT22;54058;52.010;5.546;2024-01-15T08:49:46;3.10;99.90
67141;DHT22;54058;52.010;5.546;2024-01-15T08:52:12;3.10;99.90
67141;DHT22;54058;52.010;5.546;2024-01-15T08:54:39;3.10;99.90
67141;DHT22;54058;52.010;5.546;2024-01-15T08:57:04;3.10;99.90
67141;DHT22;54058;52.010;5.546;2024-01-15T08:59:30;3.10;99.90
67141;DHT22;54058;52.010;5.546;2024-01-15T09:01:55;3.00;99.90
67141;DHT22;54058;52.010;5.546;2024-01-15T09:04:24;3.00;99.90
67141;DHT22;54058;52.010;5.546;2024-01-15T09:06:50;3.10;99.90
67141;DHT22;54058;52.010;5.546;2024-01-15T09:09:16;3.20;99.90
67141;DHT22;54058;52.010;5.546;2024-01-15T09:11:41;3.20;99.90
67141;DHT22;54058;52.010;5.546;2024-01-15T09:14:07;3.30;99.90
67141;DHT22;54058;52.010;5.546;2024-01-15T09:16:33;3.40;99.90
67141;DHT22;54058;52.010;5.546;2024-01-15T09:18:59;3.40;99.90
67141;DHT22;54058;52.010;5.546;2024-01-15T09:21:25;3.40;99.90
67141;DHT22;54058;52.010;5.546;2024-01-15T09:23:51;3.40;99.90
67141;DHT22;54058;52.010;5.546;2024-01-15T09:26:17;3.40;99.90
67141;DHT22;54058;52.010;5.546;2024-01-15T09:28:43;3.50;99.90
67141;DHT22;54058;52.010;5.546;2024-01-15T09:31:08;3.50;99.90
67141;DHT22;54058;52.010;5.546;2024-01-15T09:33:34;3.50;99.90
67141;DHT22;54058;52.010;5.546;2024-01-15T09:36:03;3.40;99.90
67141;DHT22;54058;52.010;5.546;2024-01-15T09:38:30;3.40;99.90
67141;DHT22;54058;52.010;5.546;2024-01-15T09:40:57;3.30;99.90
67141;DHT22;54058;52.010;5.546;2024-01-15T09:43:22;3.30;99.90
67141;DHT22;54058;52.010;5.546;2024-01-15T09:45:49;3.40;99.90
67141;DHT22;54058;52.010;5.546;2024-01-15T09:48:16;3.30;99.90
67141;DHT22;54058;52.010;5.546;2024-01-15T09:50:42;3.30;99.90
67141;DHT22;54058;52.010;5.546;2024-01-15T09:53:09;3.30;99.90
67141;DHT22;54058;52.010;5.546;2024-01-15T09:55:36;3.40;99.90
67141;DHT22;54058;52.010;5.546;2024-01-15T09:58:03;3.50;99.90
67141;DHT22;54058;52.010;5.546;2024-01-15T10:00:29;3.60;99.90
67141;DHT22;54058;52.010;5.546;2024-01-15T10:02:56;3.70;99.90
67141;DHT22;54058;52.010;5.546;2024-01-15T10:05:22;3.60;99.90
67141;DHT22;54058;52.010;5.546;2024-01-15T10:07:48;3.80;99.90
67141;DHT22;54058;52.010;5.546;2024-01-15T10:10:15;3.80;99.90
67141;DHT22;54058;52.010;5.546;2024-01-15T10:12:42;3.70;99.90
67141;DHT22;54058;52.010;5.546;2024-01-15T10:15:11;3.60;99.90
67141;DHT22;54058;52.010;5.546;2024-01-15T10:17:40;3.50;99.90
67141;DHT22;54058;52.010;5.546;2024-01-15T10:20:11;3.40;99.90
67141;DHT22;54058;52.010;5.546;2024-01-15T10:22:43;3.40;99.90
67141;DHT22;54058;52.010;5.546;2024-01-15T10:25:13;3.30;99.90
67141;DHT22;54058;52.010;5.546;2024-01-15T10:27:42;3.40;99.90
67141;DHT22;54058;52.010;5.546;2024-01-15T10:30:11;3.50;99.90
67141;DHT22;54058;52.010;5.546;2024-01-15T10:32:39;3.80;99.90
67141;DHT22;54058;52.010;5.546;2024-01-15T10:35:07;3.90;99.90
67141;DHT22;54058;52.010;5.546;2024-01-15T10:37:33;4.00;99.90
67141;DHT22;54058;52.010;5.546;2024-01-15T10:40:02;4.20;99.90
67141;DHT22;54058;52.010;5.546;2024-01-15T10:42:30;4.50;99.90
67141;DHT22;54058;52.010;5.546;2024-01-15T10:44:56;4.50;99.90
67141;DHT22;54058;52.010;5.546;2024-01-15T10:47:22;4.50;99.90
67141;DHT22;54058;52.010;5.546;2024-01-15T10:49:48;4.40;99.90
67141;DHT22;54058;52.010;5.546;2024-01-15T10:52:15;4.40;99.90
67141;DHT22;54058;52.010;5.546;2024-01-15T10:54:41;4.30;99.90
67141;DHT22;54058;52.010;5.546;2024-01-15T10:57:08;4.30;99.90
67141;DHT22;54058;52.010;5.546;2024-01-15T10:59:34;4.50;99.90
67141;DHT22;54058;52.010;5.546;2024-01-15T11:02:01;4.60;99.90
67141;DHT22;54058;52.010;5.546;2024-01-15T11:04:27;4.70;99.90
67141;DHT22;54058;52.010;5.546;2024-01-15T11:06:54;4.60;99.90
67141;DHT22;54058;52.010;5.546;2024-01-15T11:09:21;4.50;99.90
67141;DHT22;54058;52.010;5.546;2024-01-15T11:11:47;4.40;99.90
67141;DHT22;54058;52.010;5.546;2024-01-15T11:14:34;4.40;99.90
67141;DHT22;54058;52.010;5.546;2024-01-15T11:17:00;4.50;99.90
67141;DHT22;54058;52.010;5.546;2024-01-15T11:19:38;4.50;99.90
67141;DHT22;54058;52.010;5.546;2024-01-15T11:24:57;4.60;99.90
67141;DHT22;54058;52.010;5.546;2024-01-15T11:27:49;4.60;99.90
67141;DHT22;54058;52.010;5.546;2024-01-15T11:30:19;4.50;99.90
67141;DHT22;54058;52.010;5.546;2024-01-15T11:32:48;4.50;99.90
67141;DHT22;54058;52.010;5.546;2024-01-15T11:35:14;4.50;99.90
67141;DHT22;54058;52.010;5.546;2024-01-15T11:40:35;4.50;99.90
67141;DHT22;54058;52.010;5.546;2024-01-15T11:43:03;4.50;99.90
67141;DHT22;54058;52.010;5.546;2024-01-15T11:45:30;4.30;99.90
67141;DHT22;54058;52.010;5.546;2024-01-15T11:48:15;4.30;99.90
67141;DHT22;54058;52.010;5.546;2024-01-15T11:53:17;4.30;99.90
67141;DHT22;54058;52.010;5.546;2024-01-15T11:55:45;4.40;99.90
67141;DHT22;54058;52.010;5.546;2024-01-15T11:58:11;4.40;99.90
67141;DHT22;54058;52.010;5.546;2024-01-15T12:00:44;4.50;99.90
67141;DHT22;54058;52.010;5.546;2024-01-15T12:03:11;4.40;99.90
67141;DHT22;54058;52.010;5.546;2024-01-15T12:05:40;4.40;99.90
67141;DHT22;54058;52.010;5.546;2024-01-15T12:08:07;4.40;99.90
67141;DHT22;54058;52.010;5.546;2024-01-15T12:10:37;4.40;99.90
67141;DHT22;54058;52.010;5.546;2024-01-15T12:13:13;4.30;99.90
67141;DHT22;54058;52.010;5.546;2024-01-15T12:15:41;4.30;99.90
67141;DHT22;54058;52.010;5.546;2024-01-15T12:18:08;4.20;99.90
67141;DHT22;54058;52.010;5.546;2024-01-15T12:20:34;4.20;99.90
67141;DHT22;54058;52.010;5.546;2024-01-15T12:23:00;4.20;99.90
67141;DHT22;54058;52.010;5.546;2024-01-15T12:25:26;4.20;99.90
67141;DHT22;54058;52.010;5.546;2024-01-15T12:27:53;4.10;99.90
67141;DHT22;54058;52.010;5.546;2024-01-15T12:30:19;4.10;99.90
67141;DHT22;54058;52.010;5.546;2024-01-15T12:32:45;4.20;99.90
67141;DHT22;54058;52.010;5.546;2024-01-15T12:35:13;4.30;99.90
67141;DHT22;54058;52.010;5.546;2024-01-15T12:37:40;4.40;99.90
67141;DHT22;54058;52.010;5.546;2024-01-15T12:40:08;4.40;99.90
67141;DHT22;54058;52.010;5.546;2024-01-15T12:42:42;4.40;99.90
67141;DHT22;54058;52.010;5.546;2024-01-15T12:45:12;4.30;99.90
67141;DHT22;54058;52.010;5.546;2024-01-15T12:47:38;4.20;99.90
67141;DHT22;54058;52.010;5.546;2024-01-15T12:50:11;4.20;99.90
67141;DHT22;54058;52.010;5.546;2024-01-15T12:52:37;4.30;99.90
67141;DHT22;54058;52.010;5.546;2024-01-15T12:55:06;4.20;99.90
67141;DHT22;54058;52.010;5.546;2024-01-15T12:57:33;4.00;99.90
67141;DHT22;54058;52.010;5.546;2024-01-15T12:59:59;3.80;99.90
67141;DHT22;54058;52.010;5.546;2024-01-15T13:02:25;3.70;99.90
67141;DHT22;54058;52.010;5.546;2024-01-15T13:04:51;3.50;99.90
67141;DHT22;54058;52.010;5.546;2024-01-15T13:07:17;3.50;99.90
67141;DHT22;54058;52.010;5.546;2024-01-15T13:09:42;3.30;99.90
67141;DHT22;54058;52.010;5.546;2024-01-15T13:12:08;3.40;99.90
67141;DHT22;54058;52.010;5.546;2024-01-15T13:14:34;3.40;99.90
67141;DHT22;54058;52.010;5.546;2024-01-15T13:17:00;3.50;99.90
67141;DHT22;54058;52.010;5.546;2024-01-15T13:19:26;3.60;99.90
67141;DHT22;54058;52.010;5.546;2024-01-15T13:21:53;3.60;99.90
67141;DHT22;54058;52.010;5.546;2024-01-15T13:24:20;3.60;99.90
67141;DHT22;54058;52.010;5.546;2024-01-15T13:26:45;3.60;99.90
67141;DHT22;54058;52.010;5.546;2024-01-15T13:29:11;3.70;99.90
67141;DHT22;54058;52.010;5.546;2024-01-15T13:31:37;3.70;99.90
67141;DHT22;54058;52.010;5.546;2024-01-15T13:34:03;3.70;99.90
67141;DHT22;54058;52.010;5.546;2024-01-15T13:36:29;3.70;99.90
67141;DHT22;54058;52.010;5.546;2024-01-15T13:38:54;3.70;99.90
67141;DHT22;54058;52.010;5.546;2024-01-15T13:41:21;3.70;99.90
67141;DHT22;54058;52.010;5.546;2024-01-15T13:43:54;3.80;99.90
67141;DHT22;54058;52.010;5.546;2024-01-15T13:46:25;3.80;99.90
67141;DHT22;54058;52.010;5.546;2024-01-15T13:48:54;3.90;99.90
67141;DHT22;54058;52.010;5.546;2024-01-15T13:51:22;3.90;99.90
67141;DHT22;54058;52.010;5.546;2024-01-15T13:53:49;3.90;99.90
67141;DHT22;54058;52.010;5.546;2024-01-15T13:56:15;3.80;99.90
67141;DHT22;54058;52.010;5.546;2024-01-15T13:58:41;3.80;99.90
67141;DHT22;54058;52.010;5.546;2024-01-15T14:01:06;3.80;99.90
67141;DHT22;54058;52.010;5.546;2024-01-15T14:03:32;3.80;99.90
67141;DHT22;54058;52.010;5.546;2024-01-15T14:05:59;3.80;99.90
67141;DHT22;54058;52.010;5.546;2024-01-15T14:08:25;3.80;99.90
67141;DHT22;54058;52.010;5.546;2024-01-15T14:10:51;3.80;99.90
67141;DHT22;54058;52.010;5.546;2024-01-15T14:13:17;3.70;99.90
67141;DHT22;54058;52.010;5.546;2024-01-15T14:15:42;3.70;99.90
67141;DHT22;54058;52.010;5.546;2024-01-15T14:18:08;3.70;99.90
67141;DHT22;54058;52.010;5.546;2024-01-15T14:20:34;3.60;99.90
67141;DHT22;54058;52.010;5.546;2024-01-15T14:22:59;3.60;99.90
67141;DHT22;54058;52.010;5.546;2024-01-15T14:25:25;3.60;99.90
67141;DHT22;54058;52.010;5.546;2024-01-15T14:27:50;3.60;99.90
67141;DHT22;54058;52.010;5.546;2024-01-15T14:30:16;3.60;99.90
67141;DHT22;54058;52.010;5.546;2024-01-15T14:32:43;3.60;99.90
67141;DHT22;54058;52.010;5.546;2024-01-15T14:35:09;3.70;99.90
67141;DHT22;54058;52.010;5.546;2024-01-15T14:37:37;3.70;99.90
67141;DHT22;54058;52.010;5.546;2024-01-15T14:40:04;3.80;99.90
67141;DHT22;54058;52.010;5.546;2024-01-15T14:42:33;3.70;99.90
67141;DHT22;54058;52.010;5.546;2024-01-15T14:44:59;3.70;99.90
67141;DHT22;54058;52.010;5.546;2024-01-15T14:47:24;3.70;99.90
67141;DHT22;54058;52.010;5.546;2024-01-15T14:49:50;3.70;99.90
67141;DHT22;54058;52.010;5.546;2024-01-15T14:52:16;3.70;99.90
67141;DHT22;54058;52.010;5.546;2024-01-15T14:54:42;3.60;99.90
67141;DHT22;54058;52.010;5.546;2024-01-15T14:57:07;3.60;99.90
67141;DHT22;54058;52.010;5.546;2024-01-15T14:59:33;3.60;99.90
67141;DHT22;54058;52.010;5.546;2024-01-15T15:01:59;3.60;99.90
67141;DHT22;54058;52.010;5.546;2024-01-15T15:04:25;3.60;99.90
67141;DHT22;54058;52.010;5.546;2024-01-15T15:06:50;3.60;99.90
67141;DHT22;54058;52.010;5.546;2024-01-15T15:09:16;3.50;99.90
67141;DHT22;54058;52.010;5.546;2024-01-15T15:11:42;3.40;99.90
67141;DHT22;54058;52.010;5.546;2024-01-15T15:14:07;3.40;99.90
67141;DHT22;54058;52.010;5.546;2024-01-15T15:16:33;3.40;99.90
67141;DHT22;54058;52.010;5.546;2024-01-15T15:18:59;3.40;99.90
67141;DHT22;54058;52.010;5.546;2024-01-15T15:21:24;3.40;99.90
67141;DHT22;54058;52.010;5.546;2024-01-15T15:23:50;3.40;99.90
67141;DHT22;54058;52.010;5.546;2024-01-15T15:26:15;3.40;99.90
67141;DHT22;54058;52.010;5.546;2024-01-15T15:28:41;3.30;99.90
67141;DHT22;54058;52.010;5.546;2024-01-15T15:31:07;3.30;99.90
67141;DHT22;54058;52.010;5.546;2024-01-15T15:33:39;3.30;99.90
67141;DHT22;54058;52.010;5.546;2024-01-15T15:36:04;3.30;99.90
67141;DHT22;54058;52.010;5.546;2024-01-15T15:38:31;3.20;99.90
67141;DHT22;54058;52.010;5.546;2024-01-15T15:40:57;3.20;99.90
67141;DHT22;54058;52.010;5.546;2024-01-15T15:43:25;3.30;99.90
67141;DHT22;54058;52.010;5.546;2024-01-15T15:45:51;3.20;99.90
67141;DHT22;54058;52.010;5.546;2024-01-15T15:48:16;3.20;99.90